createdAt,value
2023-02-17T00:00:39.376Z,10.98
2023-02-17T00:03:06.535Z,10.10
2023-02-17T00:05:33.670Z,10.43
2023-02-17T00:08:00.816Z,10.63
2023-02-17T00:10:28.031Z,10.40
2023-02-17T00:12:55.153Z,11.43
2023-02-17T00:15:22.329Z,11.25
2023-02-17T00:17:49.474Z,10.20
2023-02-17T00:20:16.592Z,10.37
2023-02-17T00:22:43.726Z,10.55
2023-02-17T00:25:10.857Z,10.02
2023-02-17T00:27:37.980Z,10.07
2023-02-17T00:30:05.398Z,10.07
2023-02-17T00:32:32.629Z,10.13
2023-02-17T00:34:59.826Z,10.40
2023-02-17T00:37:27.041Z,10.45
2023-02-17T00:39:54.238Z,9.77
2023-02-17T00:42:21.337Z,10.70
2023-02-17T00:44:48.480Z,9.77
2023-02-17T00:47:15.601Z,9.75
2023-02-17T00:49:42.760Z,11.00
2023-02-17T00:52:09.923Z,10.23
2023-02-17T00:54:37.117Z,9.77
2023-02-17T00:57:04.366Z,9.38
2023-02-17T00:59:31.486Z,10.15
2023-02-17T01:01:58.700Z,10.38
2023-02-17T01:04:25.917Z,9.17
2023-02-17T01:06:53.106Z,9.52
2023-02-17T01:09:20.322Z,9.73
2023-02-17T01:11:47.416Z,9.80
2023-02-17T01:14:15.266Z,9.18
2023-02-17T01:16:45.353Z,8.47
2023-02-17T01:19:13.995Z,8.05
2023-02-17T01:21:41.422Z,8.27
2023-02-17T01:24:09.560Z,8.63
2023-02-17T01:26:37.601Z,8.10
2023-02-17T01:29:05.241Z,8.60
2023-02-17T01:31:32.568Z,7.47
2023-02-17T01:34:00.852Z,8.60
2023-02-17T01:36:28.636Z,8.57
2023-02-17T01:38:56.100Z,9.38
2023-02-17T01:41:27.074Z,7.83
2023-02-17T01:44:08.397Z,8.60
2023-02-17T01:46:36.296Z,7.93
2023-02-17T01:49:04.437Z,7.50
2023-02-17T01:51:36.421Z,7.65
2023-02-17T01:54:12.293Z,8.60
2023-02-17T01:56:40.837Z,8.93
2023-02-17T01:59:11.169Z,8.25
2023-02-17T02:01:38.447Z,7.63
2023-02-17T02:04:07.161Z,7.78
2023-02-17T02:06:35.574Z,7.80
2023-02-17T02:09:08.066Z,8.15
2023-02-17T02:11:36.374Z,8.35
2023-02-17T02:14:05.054Z,8.02
2023-02-17T02:16:32.253Z,7.90
2023-02-17T02:19:15.706Z,8.33
2023-02-17T02:21:55.469Z,7.40
2023-02-17T02:24:27.267Z,7.72
2023-02-17T02:27:04.955Z,6.90
2023-02-17T02:29:54.153Z,6.20
2023-02-17T02:32:37.086Z,8.17
2023-02-17T02:35:19.309Z,7.00
2023-02-17T02:37:49.533Z,6.85
2023-02-17T02:40:17.439Z,6.68
2023-02-17T02:42:45.911Z,6.85
2023-02-17T02:45:13.322Z,7.57
2023-02-17T02:47:53.751Z,6.80
2023-02-17T02:50:24.010Z,7.22
2023-02-17T02:52:51.085Z,8.25
2023-02-17T02:55:21.306Z,8.40
2023-02-17T02:57:53.664Z,7.77
2023-02-17T03:00:33.127Z,7.82
2023-02-17T03:03:02.503Z,8.30
2023-02-17T03:05:39.227Z,7.88
2023-02-17T03:08:06.438Z,6.68
2023-02-17T03:10:33.590Z,7.77
2023-02-17T03:13:02.905Z,7.97
2023-02-17T03:15:33.213Z,8.73
2023-02-17T03:18:01.368Z,7.68
2023-02-17T03:20:30.609Z,9.07
2023-02-17T03:22:57.881Z,9.03
2023-02-17T03:25:25.148Z,8.52
2023-02-17T03:27:52.316Z,8.60
2023-02-17T03:30:19.658Z,9.65
2023-02-17T03:32:47.128Z,9.75
2023-02-17T03:35:14.378Z,10.00
2023-02-17T03:37:41.701Z,9.50
2023-02-17T03:40:09.481Z,9.32
2023-02-17T03:42:36.692Z,10.85
2023-02-17T03:45:04.484Z,10.25
2023-02-17T03:47:31.618Z,11.07
2023-02-17T03:49:58.706Z,10.95
2023-02-17T03:52:25.896Z,10.77
2023-02-17T03:54:53.225Z,11.05
2023-02-17T03:57:20.349Z,10.63
2023-02-17T03:59:47.488Z,10.30
2023-02-17T04:02:14.621Z,9.27
2023-02-17T04:04:41.745Z,10.98
2023-02-17T04:07:08.960Z,10.07
2023-02-17T04:09:36.127Z,9.90
2023-02-17T04:12:03.261Z,9.33
2023-02-17T04:14:30.456Z,8.70
2023-02-17T04:16:57.588Z,9.15
2023-02-17T04:19:24.670Z,9.88
2023-02-17T04:21:51.829Z,9.00
2023-02-17T04:24:18.939Z,9.50
2023-02-17T04:26:46.060Z,8.73
2023-02-17T04:29:13.192Z,8.45
2023-02-17T04:31:40.458Z,7.90
2023-02-17T04:34:07.746Z,8.60
2023-02-17T04:36:34.906Z,7.23
2023-02-17T04:39:02.037Z,8.90
2023-02-17T04:41:29.147Z,8.27
2023-02-17T04:43:56.281Z,8.32
2023-02-17T04:46:23.448Z,8.23
2023-02-17T04:48:50.608Z,8.33
2023-02-17T04:51:17.830Z,8.52
2023-02-17T04:53:45.054Z,8.88
2023-02-17T04:56:12.205Z,8.85
2023-02-17T04:58:39.386Z,8.85
2023-02-17T05:01:06.541Z,8.30
2023-02-17T05:03:33.693Z,8.77
2023-02-17T05:06:00.873Z,8.95
2023-02-17T05:08:28.010Z,9.35
2023-02-17T05:10:55.190Z,9.30
2023-02-17T05:13:22.393Z,8.83
2023-02-17T05:15:49.614Z,10.30
2023-02-17T05:18:16.787Z,9.82
2023-02-17T05:20:43.945Z,10.75
2023-02-17T05:23:11.092Z,10.88
2023-02-17T05:25:38.359Z,9.93
2023-02-17T05:28:05.592Z,9.80
2023-02-17T05:30:32.776Z,10.20
2023-02-17T05:33:00.779Z,10.15
2023-02-17T05:35:27.965Z,9.90
2023-02-17T05:37:55.133Z,10.33
2023-02-17T05:40:22.334Z,9.98
2023-02-17T05:42:49.506Z,9.90
2023-02-17T05:45:16.678Z,10.05
2023-02-17T05:47:43.773Z,9.98
2023-02-17T05:50:11.105Z,9.70
2023-02-17T05:52:38.240Z,10.30
2023-02-17T05:55:05.646Z,10.00
2023-02-17T05:57:32.813Z,9.95
2023-02-17T05:59:59.974Z,10.30
2023-02-17T06:02:27.244Z,9.20
2023-02-17T06:04:54.583Z,10.63
2023-02-17T06:07:22.165Z,10.38
2023-02-17T06:09:49.300Z,8.68
2023-02-17T06:12:16.410Z,9.43
2023-02-17T06:14:43.595Z,9.10
2023-02-17T06:17:11.146Z,9.63
2023-02-17T06:19:38.288Z,8.85
2023-02-17T06:22:05.490Z,9.10
2023-02-17T06:24:32.679Z,9.00
2023-02-17T06:26:59.869Z,8.37
2023-02-17T06:29:27.726Z,8.60
2023-02-17T06:31:55.707Z,7.68
2023-02-17T06:34:23.198Z,7.43
2023-02-17T06:36:50.429Z,7.88
2023-02-17T06:39:17.619Z,6.78
2023-02-17T06:41:44.847Z,8.10
2023-02-17T06:44:12.126Z,8.15
2023-02-17T06:46:39.343Z,9.10
2023-02-17T06:49:06.554Z,7.97
2023-02-17T06:51:33.818Z,7.97
2023-02-17T06:54:01.158Z,8.15
2023-02-17T06:56:28.363Z,8.40
2023-02-17T06:58:55.521Z,7.35
2023-02-17T07:01:23.928Z,7.57
2023-02-17T07:03:51.116Z,7.35
2023-02-17T07:06:18.372Z,7.77
2023-02-17T07:08:45.504Z,7.13
2023-02-17T07:11:13.749Z,6.80
2023-02-17T07:13:41.455Z,5.85
2023-02-17T07:16:09.780Z,6.57
2023-02-17T07:18:37.809Z,6.30
2023-02-17T07:21:05.918Z,6.10
2023-02-17T07:23:33.147Z,6.70
2023-02-17T07:26:08.569Z,6.15
2023-02-17T07:28:36.480Z,6.15
2023-02-17T07:31:07.661Z,6.23
2023-02-17T07:33:35.417Z,6.28
2023-02-17T07:36:07.097Z,6.28
2023-02-17T07:38:34.468Z,5.93
2023-02-17T07:41:08.890Z,6.63
2023-02-17T07:43:36.365Z,5.93
2023-02-17T07:46:04.049Z,5.60
2023-02-17T07:48:31.385Z,6.47
2023-02-17T07:50:58.515Z,5.45
2023-02-17T07:53:25.646Z,6.57
2023-02-17T07:55:52.789Z,6.67
2023-02-17T07:58:19.982Z,6.13
2023-02-17T08:00:47.206Z,5.63
2023-02-17T08:03:14.317Z,6.30
2023-02-17T08:05:44.365Z,6.43
2023-02-17T08:08:30.133Z,6.27
2023-02-17T08:11:19.863Z,6.22
2023-02-17T08:13:47.035Z,6.40
2023-02-17T08:16:14.172Z,6.05
2023-02-17T08:18:41.317Z,6.45
2023-02-17T08:21:08.722Z,6.47
2023-02-17T08:23:36.124Z,6.32
2023-02-17T08:26:03.399Z,6.70
2023-02-17T08:28:30.641Z,6.00
2023-02-17T08:30:58.089Z,5.72
2023-02-17T08:33:25.344Z,5.67
2023-02-17T08:35:52.526Z,5.57
2023-02-17T08:38:19.654Z,5.97
2023-02-17T08:40:46.836Z,5.65
2023-02-17T08:43:13.992Z,5.40
2023-02-17T08:45:41.211Z,6.03
2023-02-17T08:48:08.421Z,5.75
2023-02-17T08:50:35.613Z,5.97
2023-02-17T08:53:02.741Z,5.90
2023-02-17T08:55:35.540Z,5.57
2023-02-17T08:58:11.286Z,5.93
2023-02-17T09:00:38.475Z,5.45
2023-02-17T09:03:07.532Z,4.65
2023-02-17T09:05:36.190Z,5.20
2023-02-17T09:08:03.332Z,5.57
2023-02-17T09:10:30.714Z,5.13
2023-02-17T09:12:57.944Z,4.88
2023-02-17T09:15:25.260Z,4.90
2023-02-17T09:17:52.412Z,5.80
2023-02-17T09:20:25.188Z,4.93
2023-02-17T09:22:52.879Z,5.23
2023-02-17T09:25:20.074Z,5.20
2023-02-17T09:27:47.313Z,5.25
2023-02-17T09:30:14.628Z,5.03
2023-02-17T09:32:42.558Z,4.93
2023-02-17T09:35:12.580Z,4.47
2023-02-17T09:37:39.787Z,4.68
2023-02-17T09:40:07.619Z,4.25
2023-02-17T09:42:37.154Z,4.50
2023-02-17T09:45:26.819Z,4.30
2023-02-17T09:47:55.780Z,4.43
2023-02-17T09:50:26.607Z,4.35
2023-02-17T09:53:03.697Z,4.88
2023-02-17T09:55:33.891Z,4.18
2023-02-17T09:58:06.920Z,4.72
2023-02-17T10:00:48.102Z,5.83
2023-02-17T10:03:21.331Z,4.25
2023-02-17T10:06:07.799Z,3.78
2023-02-17T10:08:55.470Z,3.38
2023-02-17T10:11:58.245Z,4.38
2023-02-17T10:14:31.734Z,4.23
2023-02-17T10:17:05.387Z,4.35
2023-02-17T10:19:35.326Z,4.57
2023-02-17T10:22:12.046Z,4.68
2023-02-17T10:24:39.196Z,5.03
2023-02-17T10:27:09.110Z,4.23
2023-02-17T10:29:48.040Z,4.07
2023-02-17T10:32:16.689Z,4.72
2023-02-17T10:34:50.625Z,4.90
2023-02-17T10:37:38.706Z,4.80
2023-02-17T10:40:12.311Z,4.73
2023-02-17T10:42:39.832Z,4.07
2023-02-17T10:45:11.722Z,4.35
2023-02-17T10:47:39.900Z,4.40
2023-02-17T10:50:09.280Z,4.45
2023-02-17T10:52:41.061Z,4.47
2023-02-17T10:55:33.175Z,3.90
2023-02-17T10:58:26.827Z,4.63
2023-02-17T11:00:56.931Z,4.20
2023-02-17T11:03:28.698Z,4.20
2023-02-17T11:05:57.402Z,4.40
2023-02-17T11:08:29.480Z,4.10
2023-02-17T11:11:20.010Z,4.68
2023-02-17T11:14:01.692Z,4.70
2023-02-17T11:16:30.170Z,4.95
2023-02-17T11:18:57.385Z,4.37
2023-02-17T11:21:24.649Z,4.70
2023-02-17T11:23:54.929Z,4.25
2023-02-17T11:26:27.410Z,4.03
2023-02-17T11:28:55.007Z,4.68
2023-02-17T11:31:27.302Z,4.17
2023-02-17T11:33:56.785Z,4.50
2023-02-17T11:36:25.733Z,4.75
2023-02-17T11:38:52.973Z,4.95
2023-02-17T11:41:20.797Z,4.60
2023-02-17T11:43:52.485Z,4.10
2023-02-17T11:46:23.660Z,4.25
2023-02-17T11:49:03.258Z,3.65
2023-02-17T11:51:39.485Z,4.35
2023-02-17T11:54:12.880Z,3.47
2023-02-17T11:56:41.707Z,3.07
2023-02-17T11:59:17.960Z,3.72
2023-02-17T12:01:45.085Z,3.75
2023-02-17T12:04:21.635Z,3.70
2023-02-17T12:06:54.968Z,3.30
2023-02-17T12:09:33.168Z,3.07
2023-02-17T12:12:19.039Z,2.75
2023-02-17T12:14:55.283Z,2.90
2023-02-17T12:17:28.685Z,2.88
2023-02-17T12:20:02.656Z,3.13
2023-02-17T12:22:52.798Z,3.20
2023-02-17T12:25:25.867Z,3.63
2023-02-17T12:28:11.723Z,3.13
2023-02-17T12:30:46.120Z,3.95
2023-02-17T12:33:19.439Z,3.60
2023-02-17T12:35:52.783Z,3.40
2023-02-17T12:38:25.305Z,4.22
2023-02-17T12:41:08.289Z,4.53
2023-02-17T12:43:41.567Z,4.72
2023-02-17T12:46:11.610Z,5.60
2023-02-17T12:48:41.822Z,4.83
2023-02-17T12:51:08.981Z,5.55
2023-02-17T12:53:45.258Z,5.88
2023-02-17T12:56:31.297Z,6.03
2023-02-17T12:59:24.889Z,6.68
2023-02-17T13:02:02.809Z,6.80
2023-02-17T13:04:30.592Z,5.53
2023-02-17T13:07:19.110Z,5.85
2023-02-17T13:09:49.382Z,6.18
2023-02-17T13:12:16.761Z,5.47
2023-02-17T13:14:48.641Z,5.83
2023-02-17T13:17:30.103Z,5.90
2023-02-17T13:20:05.793Z,5.20
2023-02-17T13:22:32.957Z,5.55
2023-02-17T13:25:00.462Z,4.72
2023-02-17T13:27:31.219Z,5.50
2023-02-17T13:30:04.036Z,5.55
2023-02-17T13:32:32.915Z,5.20
2023-02-17T13:35:07.961Z,4.88
2023-02-17T13:37:35.035Z,5.65
2023-02-17T13:40:02.846Z,5.03
2023-02-17T13:42:36.076Z,5.97
2023-02-17T13:45:11.816Z,5.97
2023-02-17T13:47:39.894Z,5.75
2023-02-17T13:50:07.458Z,5.00
2023-02-17T13:52:34.608Z,5.03
2023-02-17T13:55:05.753Z,5.15
2023-02-17T13:57:34.989Z,4.72
2023-02-17T14:00:23.044Z,5.00
2023-02-17T14:02:57.646Z,4.90
2023-02-17T14:05:33.817Z,5.10
2023-02-17T14:08:04.527Z,5.40
2023-02-17T14:10:31.765Z,5.30
2023-02-17T14:12:59.328Z,5.10
2023-02-17T14:15:27.988Z,4.85
2023-02-17T14:17:55.359Z,5.20
2023-02-17T14:20:36.042Z,4.65
2023-02-17T14:23:08.669Z,4.55
2023-02-17T14:25:37.579Z,4.53
2023-02-17T14:28:04.791Z,5.03
2023-02-17T14:30:39.405Z,5.00
2023-02-17T14:33:09.670Z,4.18
2023-02-17T14:35:39.328Z,4.95
2023-02-17T14:38:11.279Z,5.05
2023-02-17T14:40:40.089Z,4.72
2023-02-17T14:43:07.396Z,4.57
2023-02-17T14:45:34.588Z,4.15
2023-02-17T14:48:01.675Z,4.70
2023-02-17T14:50:28.825Z,4.40
2023-02-17T14:52:56.420Z,4.53
2023-02-17T14:55:30.589Z,5.00
2023-02-17T14:57:57.760Z,5.00
2023-02-17T15:00:26.902Z,4.57
2023-02-17T15:02:54.859Z,4.68
2023-02-17T15:05:21.973Z,5.00
2023-02-17T15:07:49.521Z,4.07
2023-02-17T15:10:25.829Z,4.55
2023-02-17T15:12:53.120Z,4.65
2023-02-17T15:15:20.690Z,4.70
2023-02-17T15:17:48.068Z,4.20
2023-02-17T15:20:16.171Z,4.93
2023-02-17T15:22:44.389Z,4.80
2023-02-17T15:25:16.765Z,4.63
2023-02-17T15:27:44.382Z,4.97
2023-02-17T15:30:13.181Z,5.35
2023-02-17T15:32:40.407Z,5.20
2023-02-17T15:35:34.181Z,4.97
2023-02-17T15:38:01.311Z,4.75
2023-02-17T15:40:29.029Z,5.45
2023-02-17T15:42:57.514Z,4.78
2023-02-17T15:45:25.442Z,4.50
2023-02-17T15:47:55.922Z,4.53
2023-02-17T15:50:23.300Z,4.70
2023-02-17T15:52:51.151Z,4.60
2023-02-17T15:55:19.550Z,6.00
2023-02-17T15:57:48.885Z,4.70
2023-02-17T16:00:21.020Z,4.80
2023-02-17T16:02:48.234Z,5.43
2023-02-17T16:05:16.709Z,5.03
2023-02-17T16:07:44.269Z,6.03
2023-02-17T16:10:12.532Z,5.00
2023-02-17T16:12:40.247Z,5.40
2023-02-17T16:15:09.277Z,5.40
2023-02-17T16:17:36.489Z,5.38
2023-02-17T16:20:03.680Z,5.68
2023-02-17T16:22:30.887Z,5.70
2023-02-17T16:24:58.105Z,5.60
2023-02-17T16:27:25.310Z,5.97
2023-02-17T16:29:52.502Z,5.97
2023-02-17T16:32:19.782Z,6.07
2023-02-17T16:34:46.998Z,5.73
2023-02-17T16:37:15.369Z,6.03
2023-02-17T16:39:42.917Z,5.65
2023-02-17T16:42:15.229Z,5.50
2023-02-17T16:44:42.768Z,6.03
2023-02-17T16:47:18.052Z,5.90
2023-02-17T16:49:47.104Z,5.50
2023-02-17T16:52:27.044Z,5.28
2023-02-17T16:54:54.646Z,6.03
2023-02-17T16:57:22.497Z,6.18
2023-02-17T16:59:49.745Z,5.40
2023-02-17T17:02:17.173Z,5.72
2023-02-17T17:04:44.477Z,6.13
2023-02-17T17:07:14.154Z,5.55
2023-02-17T17:09:43.064Z,6.40
2023-02-17T17:12:11.453Z,5.17
2023-02-17T17:14:38.683Z,5.63
2023-02-17T17:17:05.775Z,5.40
2023-02-17T17:19:32.906Z,4.82
2023-02-17T17:22:00.095Z,5.13
2023-02-17T17:24:27.310Z,5.23
2023-02-17T17:26:55.807Z,5.38
2023-02-17T17:29:23.007Z,4.93
2023-02-17T17:31:50.249Z,5.18
2023-02-17T17:34:17.407Z,4.95
2023-02-17T17:36:45.745Z,5.10
2023-02-17T17:39:18.146Z,4.28
2023-02-17T17:41:45.615Z,4.50
2023-02-17T17:44:12.821Z,4.63
2023-02-17T17:46:41.091Z,4.63
2023-02-17T17:49:10.383Z,4.40
2023-02-17T17:51:38.426Z,5.10
2023-02-17T17:54:06.144Z,4.28
2023-02-17T17:56:34.972Z,4.72
2023-02-17T17:59:03.018Z,4.53
2023-02-17T18:01:30.312Z,4.53
2023-02-17T18:03:59.456Z,4.32
2023-02-17T18:06:28.254Z,4.70
2023-02-17T18:08:56.938Z,4.00
2023-02-17T18:11:25.198Z,3.90
2023-02-17T18:13:53.694Z,4.53
2023-02-17T18:16:21.935Z,4.05
2023-02-17T18:18:49.349Z,4.72
2023-02-17T18:21:16.496Z,5.60
2023-02-17T18:23:43.612Z,6.13
2023-02-17T18:26:12.147Z,6.67
2023-02-17T18:28:40.406Z,5.85
2023-02-17T18:31:08.571Z,6.25
2023-02-17T18:33:35.845Z,7.80
2023-02-17T18:36:13.631Z,8.32
2023-02-17T18:38:40.997Z,9.37
2023-02-17T18:41:08.231Z,10.25
2023-02-17T18:43:35.418Z,9.07
2023-02-17T18:46:02.558Z,9.50
2023-02-17T18:48:30.107Z,9.95
2023-02-17T18:50:57.240Z,9.27
2023-02-17T18:53:24.526Z,8.63
2023-02-17T18:55:51.737Z,8.85
2023-02-17T18:58:18.931Z,9.00
2023-02-17T19:00:46.067Z,9.52
2023-02-17T19:03:13.469Z,8.97
2023-02-17T19:05:40.630Z,9.60
2023-02-17T19:08:08.567Z,10.25
2023-02-17T19:10:35.814Z,10.38
2023-02-17T19:13:02.982Z,10.40
2023-02-17T19:15:30.162Z,11.07
2023-02-17T19:17:57.908Z,11.48
2023-02-17T19:20:28.862Z,11.48
2023-02-17T19:22:56.330Z,10.90
2023-02-17T19:25:23.584Z,11.23
2023-02-17T19:27:50.728Z,9.53
2023-02-17T19:30:18.012Z,9.30
2023-02-17T19:32:45.202Z,10.10
2023-02-17T19:35:12.342Z,10.13
2023-02-17T19:37:39.520Z,10.07
2023-02-17T19:40:07.174Z,9.10
2023-02-17T19:42:34.352Z,8.70
2023-02-17T19:45:01.576Z,8.68
2023-02-17T19:47:30.851Z,7.00
2023-02-17T19:49:58.021Z,8.15
2023-02-17T19:52:25.205Z,6.90
2023-02-17T19:54:52.312Z,6.88
2023-02-17T19:57:19.500Z,6.85
2023-02-17T19:59:46.644Z,7.72
2023-02-17T20:02:14.897Z,6.97
2023-02-17T20:04:42.687Z,7.33
2023-02-17T20:07:09.907Z,7.10
2023-02-17T20:09:37.640Z,6.60
2023-02-17T20:12:04.966Z,7.05
2023-02-17T20:14:32.095Z,7.05
2023-02-17T20:17:00.681Z,6.80
2023-02-17T20:19:28.516Z,7.63
2023-02-17T20:21:55.595Z,7.20
2023-02-17T20:24:22.825Z,6.95
2023-02-17T20:26:53.501Z,7.60
2023-02-17T20:29:20.903Z,7.97
2023-02-17T20:31:48.172Z,8.70
2023-02-17T20:34:21.471Z,9.15
2023-02-17T20:36:48.621Z,9.57
2023-02-17T20:39:15.729Z,11.55
2023-02-17T20:41:42.924Z,12.77
2023-02-17T20:44:12.273Z,12.60
2023-02-17T20:46:40.115Z,13.35
2023-02-17T20:49:07.900Z,14.23
2023-02-17T20:51:34.994Z,14.52
2023-02-17T20:54:02.130Z,14.27
2023-02-17T20:56:34.341Z,15.00
2023-02-17T20:59:01.899Z,15.77
2023-02-17T21:01:29.076Z,15.63
2023-02-17T21:03:56.657Z,15.48
2023-02-17T21:06:25.641Z,15.83
2023-02-17T21:08:54.602Z,15.60
2023-02-17T21:11:21.983Z,16.02
2023-02-17T21:13:49.213Z,15.05
2023-02-17T21:16:17.487Z,14.85
2023-02-17T21:18:46.837Z,14.53
2023-02-17T21:21:14.274Z,15.23
2023-02-17T21:23:41.419Z,14.85
2023-02-17T21:26:09.741Z,14.05
2023-02-17T21:28:37.152Z,13.35
2023-02-17T21:31:04.689Z,13.10
2023-02-17T21:33:32.179Z,13.45
2023-02-17T21:35:59.312Z,13.55
2023-02-17T21:38:26.502Z,12.82
2023-02-17T21:40:53.664Z,12.30
2023-02-17T21:43:39.474Z,12.67
2023-02-17T21:46:12.960Z,12.10
2023-02-17T21:48:40.061Z,11.82
2023-02-17T21:51:08.237Z,12.73
2023-02-17T21:53:35.842Z,11.77
2023-02-17T21:56:03.139Z,12.10
2023-02-17T21:58:30.697Z,10.77
2023-02-17T22:00:58.375Z,11.40
2023-02-17T22:03:25.659Z,11.05
2023-02-17T22:05:53.098Z,11.73
2023-02-17T22:08:20.287Z,10.80
2023-02-17T22:10:47.450Z,10.73
2023-02-17T22:13:14.588Z,11.82
2023-02-17T22:15:41.849Z,12.23
2023-02-17T22:18:09.042Z,10.98
2023-02-17T22:20:36.630Z,12.43
2023-02-17T22:23:03.828Z,11.02
2023-02-17T22:25:31.303Z,11.45
2023-02-17T22:27:58.499Z,12.30
2023-02-17T22:30:25.738Z,11.20
2023-02-17T22:32:52.886Z,11.10
2023-02-17T22:35:20.936Z,10.65
2023-02-17T22:37:48.186Z,11.02
2023-02-17T22:40:18.154Z,12.38
2023-02-17T22:42:45.258Z,11.85
2023-02-17T22:45:12.714Z,10.60
2023-02-17T22:47:39.898Z,11.95
2023-02-17T22:50:07.180Z,11.13
2023-02-17T22:52:35.181Z,11.73
2023-02-17T22:55:02.364Z,11.68
2023-02-17T22:57:29.514Z,13.03
2023-02-17T22:59:56.683Z,11.93
2023-02-17T23:02:23.850Z,12.45
2023-02-17T23:04:51.036Z,12.73
2023-02-17T23:07:18.138Z,12.55
2023-02-17T23:09:45.259Z,11.80
2023-02-17T23:12:12.496Z,11.57
2023-02-17T23:14:40.538Z,13.50
2023-02-17T23:17:09.396Z,12.60
2023-02-17T23:19:36.897Z,13.45
2023-02-17T23:22:05.824Z,13.57
2023-02-17T23:24:33.317Z,12.45
2023-02-17T23:27:01.202Z,12.93
2023-02-17T23:29:30.661Z,10.60
2023-02-17T23:31:58.036Z,10.60
2023-02-17T23:34:25.457Z,11.30
2023-02-17T23:36:52.654Z,11.18
2023-02-17T23:39:19.775Z,11.45
2023-02-17T23:41:49.073Z,11.18
2023-02-17T23:44:16.848Z,11.73
2023-02-17T23:46:44.643Z,11.07
2023-02-17T23:49:16.389Z,11.48
2023-02-17T23:51:43.744Z,11.95
2023-02-17T23:54:10.981Z,11.52
2023-02-17T23:56:38.575Z,12.60
2023-02-17T23:59:06.061Z,11.43
